Time;durP1;ratioP1;P1;durP2;ratioP2;P2;SDS_P1;SDS_P2;PMS_P1;PMS_P2;Temp;Humidity;BMP_temperature;BMP_pressure;BME280_temperature;BME280_humidity;BME280_pressure;Samples;Min_cycle;Max_cycle;Signal;HPM_P1;HPM_P2
2024/04/05 00:02:45;;;;;;;1.88;1.15;;;;;;;-145.63;40.64;39208.06;5007580;28;20022;-65
2024/04/05 00:06:00;;;;;;;1.30;1.20;;;;;;;-145.63;41.09;39180.69;5010999;28;20032;-65
2024/04/05 00:12:27;;;;;;;2.35;1.33;;;;;;;-145.63;41.06;39204.16;5005509;28;20419;-67
2024/04/05 00:17:49;;;;;;;2.90;1.35;;;;;;;-145.63;40.73;39221.78;5009786;28;20022;-66
2024/04/05 00:20:33;;;;;;;1.30;1.20;;;;;;;-145.63;40.93;39202.22;5010875;28;20208;-65
2024/04/05 00:23:17;;;;;;;1.10;1.10;;;;;;;-145.63;40.63;39194.38;5014235;28;20022;-65
2024/04/05 00:26:19;;;;;;;1.98;1.40;;;;;;;-145.63;41.03;39178.75;5010965;28;20046;-65
2024/04/05 00:31:38;;;;;;;3.85;1.75;;;;;;;-145.63;41.26;39174.84;5014925;28;20044;-65
2024/04/05 00:34:13;;;;;;;1.40;1.30;;;;;;;-145.63;41.28;39176.78;5005001;28;20037;-64
2024/04/05 00:36:39;;;;;;;1.38;1.27;;;;;;;-145.63;41.29;39182.66;5013812;28;20125;-65
2024/04/05 00:39:29;;;;;;;1.35;1.25;;;;;;;-145.63;41.17;39188.53;5012743;28;20108;-63
2024/04/05 00:42:13;;;;;;;1.30;1.20;;;;;;;-145.63;40.64;39176.78;5007596;28;20041;-66
2024/04/05 00:44:38;;;;;;;1.35;1.25;;;;;;;-145.63;40.85;39163.09;5001391;28;20042;-65
2024/04/05 00:47:28;;;;;;;2.05;1.23;;;;;;;-145.63;41.07;39206.13;5013397;28;20037;-66
2024/04/05 00:50:12;;;;;;;1.58;1.20;;;;;;;-145.63;40.40;39198.31;5007161;28;20103;-65
2024/04/05 00:53:00;;;;;;;1.67;1.30;;;;;;;-145.63;40.44;39210.03;5009462;28;20061;-65
2024/04/05 00:59:03;;;;;;;1.50;1.40;;;;;;;-145.63;40.28;39194.38;4997141;28;20539;-64
2024/04/05 01:01:34;;;;;;;1.05;1.02;;;;;;;-145.63;39.96;39188.53;5000532;28;20403;-64
2024/04/05 01:04:28;;;;;;;1.90;1.30;;;;;;;-145.63;39.98;39192.44;5013775;28;20125;-64
2024/04/05 01:06:59;;;;;;;2.25;1.30;;;;;;;-145.63;39.80;39168.97;5009167;28;20040;-65
2024/04/05 01:09:25;;;;;;;1.20;1.10;;;;;;;-145.63;40.85;39182.66;5013148;28;20030;-65
2024/04/05 01:12:14;;;;;;;1.10;1.00;;;;;;;-145.63;40.37;39165.06;5012786;28;20034;-64
2024/04/05 01:14:40;;;;;;;1.05;0.90;;;;;;;-145.63;39.90;39176.78;5002143;28;20068;-64
2024/04/05 01:17:20;;;;;;;0.82;0.82;;;;;;;-145.63;39.65;39194.38;5014235;28;20038;-63
2024/04/05 01:20:02;;;;;;;0.98;0.90;;;;;;;-145.63;40.17;39176.78;5001360;28;20085;-63
2024/04/05 01:23:10;;;;;;;0.98;0.98;;;;;;;-145.63;39.83;38447.38;5001366;28;20113;-64
2024/04/05 01:26:03;;;;;;;1.60;1.10;;;;;;;-145.63;39.62;39170.91;4998465;28;20701;-62
2024/04/05 01:28:50;;;;;;;4.43;1.42;;;;;;;-145.63;39.69;39172.88;5008727;28;20034;-63
2024/04/05 01:40:24;;;;;;;1.25;1.10;;;;;;;-145.63;39.99;39182.66;4995094;28;20083;-64
2024/04/05 01:43:13;;;;;;;1.30;1.20;;;;;;;-145.63;39.67;39186.56;5011244;28;20034;-64
2024/04/05 01:52:36;;;;;;;1.63;1.00;;;;;;;-145.63;40.15;39192.44;5009539;28;20045;-63
2024/04/05 01:55:23;;;;;;;2.50;0.95;;;;;;;-145.63;40.04;39200.25;5013027;28;20136;-64
2024/04/05 01:58:09;;;;;;;1.00;1.00;;;;;;;-145.63;39.64;39178.75;5013554;28;20042;-64
2024/04/05 02:00:40;;;;;;;1.35;1.05;;;;;;;-145.63;39.67;39172.88;5013580;28;20029;-64
2024/04/05 02:03:12;;;;;;;0.90;0.90;;;;;;;-145.63;39.84;39184.59;5011292;28;20026;-66
2024/04/05 02:05:52;;;;;;;1.08;0.98;;;;;;;-145.63;39.57;39284.34;4995729;28;20099;-64
2024/04/05 02:09:07;;;;;;;1.15;0.88;;;;;;;-145.63;40.26;39192.44;4995432;28;20041;-64
2024/04/05 02:15:41;;;;;;;1.20;0.90;;;;;;;-145.63;40.04;39174.84;5013395;28;20561;-63
2024/04/05 02:18:16;;;;;;;2.25;1.02;;;;;;;-145.63;39.60;39182.66;4992569;28;20033;-64
2024/04/05 02:21:00;;;;;;;1.45;0.93;;;;;;;-145.63;40.02;39180.69;5011911;28;20113;-65
2024/04/05 02:24:03;;;;;;;2.42;1.08;;;;;;;-145.63;40.04;39213.94;5010443;28;20041;-64
2024/04/05 02:26:56;;;;;;;1.38;1.10;;;;;;;-145.63;39.52;39212.00;5002773;28;20104;-64
2024/04/05 02:36:22;;;;;;;1.55;1.10;;;;;;;-145.63;39.52;39172.88;5010446;28;21171;-67
2024/04/05 02:38:48;;;;;;;2.08;1.20;;;;;;;-145.63;39.58;39198.31;5011290;28;20137;-64
2024/04/05 02:41:19;;;;;;;4.97;1.20;;;;;;;-145.63;39.96;39184.59;5012880;28;20029;-65
2024/04/05 02:43:56;;;;;;;1.20;1.10;;;;;;;-145.63;40.09;39194.38;4998412;28;20045;-65
2024/04/05 02:52:36;;;;;;;1.15;1.08;;;;;;;-145.63;40.02;39176.78;5003855;28;20058;-64
2024/04/05 02:55:17;;;;;;;1.67;1.00;;;;;;;-145.63;39.93;39184.59;5011314;28;20034;-65
2024/04/05 02:57:48;;;;;;;1.10;1.00;;;;;;;-145.63;39.78;39163.09;5000340;28;20060;-64
2024/04/05 03:00:20;;;;;;;1.00;1.00;;;;;;;-145.63;39.62;39188.53;5011430;28;20034;-66
2024/04/05 03:03:04;;;;;;;2.30;1.30;;;;;;;-145.63;39.74;39168.97;5003434;28;20037;-67
2024/04/05 03:06:06;;;;;;;2.00;1.00;;;;;;;-145.63;39.90;39188.53;5010174;28;20038;-66
2024/04/05 03:09:15;;;;;;;7.03;4.97;;;;;;;-145.63;40.61;39163.09;5011972;28;20559;-66
2024/04/05 03:12:08;;;;;;;3.03;1.30;;;;;;;-145.63;39.87;39198.31;5011511;28;20374;-65
2024/04/05 03:14:34;;;;;;;1.00;0.95;;;;;;;-145.63;40.14;39184.59;4999479;28;20389;-66
2024/04/05 03:17:18;;;;;;;1.20;1.10;;;;;;;-145.63;40.84;39168.97;5008709;28;20110;-65
2024/04/05 03:19:53;;;;;;;1.63;1.40;;;;;;;-145.63;40.92;39176.78;5012143;28;20034;-64
2024/04/05 03:22:43;;;;;;;3.30;1.90;;;;;;;-145.63;40.97;39165.06;5005818;28;20034;-65
2024/04/05 03:25:52;;;;;;;1.70;0.90;;;;;;;-145.63;41.01;39155.28;5011753;28;20080;-66
2024/04/05 03:28:36;;;;;;;2.80;1.23;;;;;;;-145.63;41.71;39118.13;5011865;28;20425;-64
2024/04/05 03:31:10;;;;;;;1.80;1.25;;;;;;;-145.63;41.34;39143.53;5007213;28;20746;-64
2024/04/05 03:33:41;;;;;;;3.75;1.27;;;;;;;-145.63;40.84;39186.56;5005034;28;20029;-66
2024/04/05 03:36:37;;;;;;;1.15;0.95;;;;;;;-145.63;41.24;39167.00;5007209;28;20060;-63
2024/04/05 03:39:08;;;;;;;1.33;1.08;;;;;;;-145.63;40.37;39182.66;5010997;28;20036;-65
2024/04/05 03:42:19;;;;;;;7.25;1.20;;;;;;;-145.63;39.85;39161.13;5010994;28;20073;-66
2024/04/05 03:44:50;;;;;;;1.85;1.10;;;;;;;-145.63;39.60;39168.97;5002186;28;20034;-64
2024/04/05 03:47:40;;;;;;;1.77;0.98;;;;;;;-145.63;40.00;39192.44;5009684;28;20092;-64
2024/04/05 03:50:39;;;;;;;4.10;1.23;;;;;;;-145.63;39.77;39192.44;5013016;28;20502;-64
2024/04/05 03:53:19;;;;;;;1.35;1.00;;;;;;;-145.63;40.01;39176.78;5009726;28;20102;-64
2024/04/05 03:59:17;;;;;;;2.75;1.08;;;;;;;-145.63;39.61;39143.53;5016901;28;20030;-65
2024/04/05 04:01:49;;;;;;;3.70;1.92;;;;;;;-145.63;40.09;39182.66;5016486;28;20021;-65
2024/04/05 04:04:39;;;;;;;1.02;1.00;;;;;;;-145.63;40.45;39165.06;5013890;28;20038;-64
2024/04/05 04:07:05;;;;;;;2.22;1.20;;;;;;;-145.63;39.89;39170.91;5009702;28;20033;-63
2024/04/05 04:09:52;;;;;;;3.20;1.20;;;;;;;-145.63;39.68;39165.06;5010361;28;20064;-63
2024/04/05 04:12:46;;;;;;;2.40;1.30;;;;;;;-145.63;40.33;39151.38;5010826;28;20026;-64
2024/04/05 04:15:39;;;;;;;4.03;1.42;;;;;;;-145.63;40.69;39122.03;5010194;28;20391;-64
2024/04/05 04:18:13;;;;;;;3.55;1.58;;;;;;;-145.63;40.13;39163.09;5010673;28;20656;-65
2024/04/05 04:21:12;;;;;;;2.97;1.25;;;;;;;-145.63;40.01;39112.25;5001387;28;20038;-64
2024/04/05 04:23:38;;;;;;;1.20;1.13;;;;;;;-145.63;39.65;39122.03;5009368;28;20065;-65
2024/04/05 04:26:28;;;;;;;4.53;1.63;;;;;;;-145.63;39.73;39149.41;5006877;28;20048;-67
2024/04/05 04:29:18;;;;;;;2.03;1.20;;;;;;;-145.63;39.37;39155.28;5008439;28;20072;-64
2024/04/05 04:31:56;;;;;;;2.10;1.50;;;;;;;-145.63;39.77;38547.09;5010975;28;20079;-64
2024/04/05 04:34:49;;;;;;;2.33;1.45;;;;;;;-145.63;39.56;39143.53;4999375;28;20061;-65
2024/04/05 04:37:21;;;;;;;8.45;1.80;;;;;;;-145.63;39.49;39131.81;5006134;28;20034;-68
2024/04/05 04:40:02;;;;;;;6.57;1.92;;;;;;;-145.63;38.99;39139.63;4999166;28;20441;-67
2024/04/05 04:42:48;;;;;;;3.42;1.38;;;;;;;-145.63;39.00;39167.00;5009883;28;20037;-66
2024/04/05 04:45:47;;;;;;;3.30;1.50;;;;;;;-145.63;39.13;39141.59;4992491;28;20447;-67
2024/04/05 04:51:46;;;;;;;5.22;1.60;;;;;;;-145.63;39.22;39116.16;5009715;28;20646;-71
2024/04/05 05:01:24;;;;;;;3.97;1.50;;;;;;;-145.63;40.08;39094.66;5013158;28;20022;-68
2024/04/05 05:06:54;;;;;;;1.25;1.10;;;;;;;-145.63;40.54;39112.25;5005831;28;20060;-66
2024/04/05 05:09:20;;;;;;;3.42;1.48;;;;;;;-145.63;40.34;39110.28;5012904;28;20096;-64
2024/04/05 05:11:51;;;;;;;2.35;1.30;;;;;;;-145.63;39.70;39122.03;5005820;28;20438;-66
2024/04/05 05:23:02;;;;;;;4.32;1.25;;;;;;;-145.63;38.94;39139.63;5008996;28;20172;-66
2024/04/05 05:25:51;;;;;;;5.07;1.67;;;;;;;-145.63;38.64;39129.84;5013192;28;20030;-68
2024/04/05 05:28:34;;;;;;;2.72;1.63;;;;;;;-145.63;40.04;39108.34;5013043;28;20100;-66
2024/04/05 05:31:06;;;;;;;4.82;1.63;;;;;;;-145.63;39.92;39123.97;5012763;28;20053;-65
2024/04/05 05:33:37;;;;;;;2.40;1.30;;;;;;;-145.63;39.11;39133.75;5013465;28;20042;-65
2024/04/05 05:36:05;;;;;;;2.58;1.80;;;;;;;-145.63;39.23;39137.69;5013054;28;20030;-65
2024/04/05 05:38:33;;;;;;;2.13;1.58;;;;;;;-145.63;39.20;39133.75;5012797;28;20625;-66
2024/04/05 05:41:08;;;;;;;2.80;1.48;;;;;;;-145.63;39.95;39133.75;5003052;28;20034;-65
2024/04/05 05:43:58;;;;;;;7.82;2.67;;;;;;;-145.63;38.79;39112.25;5007924;28;20034;-66
2024/04/05 05:46:54;;;;;;;2.47;1.42;;;;;;;-145.63;38.32;39122.03;5013420;28;20425;-66
2024/04/05 05:49:25;;;;;;;4.57;1.90;;;;;;;-145.63;38.25;39137.69;5003743;28;20037;-65
2024/04/05 05:52:00;;;;;;;3.25;1.67;;;;;;;-145.63;38.78;39110.28;5012387;28;20038;-65
2024/04/05 05:54:34;;;;;;;4.68;1.52;;;;;;;-145.63;38.23;39129.84;4996748;28;20124;-67
2024/04/05 05:57:09;;;;;;;4.35;1.67;;;;;;;-145.63;38.18;39141.59;5007314;28;20034;-65
2024/04/05 05:59:34;;;;;;;3.88;1.40;;;;;;;-145.63;37.86;39123.97;5012260;28;20030;-67
2024/04/05 06:05:27;;;;;;;4.75;1.52;;;;;;;-145.63;37.98;39104.44;4999717;28;20047;-66
2024/04/05 06:07:56;;;;;;;2.17;1.40;;;;;;;-145.63;37.74;39167.00;5004633;28;20030;-65
2024/04/05 06:14:01;;;;;;;1.90;1.70;;;;;;;-145.63;37.50;39133.75;5011966;28;20033;-66
2024/04/05 06:16:37;;;;;;;4.40;2.38;;;;;;;-145.63;37.46;39141.59;5013378;28;20478;-66
2024/04/05 06:19:17;;;;;;;6.43;1.88;;;;;;;-145.63;37.31;39133.75;5012803;28;20030;-65
2024/04/05 06:22:05;;;;;;;2.35;1.75;;;;;;;-145.63;37.63;39108.34;5013475;28;20077;-66
2024/04/05 06:24:45;;;;;;;12.75;2.47;;;;;;;-145.63;37.38;39118.13;5010462;28;20361;-66
2024/04/05 06:27:38;;;;;;;3.10;1.75;;;;;;;-145.63;36.89;39147.44;5008883;28;20108;-66
2024/04/05 06:30:29;;;;;;;74.03;8.30;;;;;;;-145.63;37.11;39168.97;5013582;28;20095;-66
2024/04/05 06:32:57;;;;;;;28.35;3.95;;;;;;;-145.63;37.23;39155.28;5012163;28;20070;-64
2024/04/05 06:38:58;;;;;;;13.60;3.58;;;;;;;-145.63;37.35;39135.72;4998345;28;20065;-65
2024/04/05 06:41:51;;;;;;;5.22;2.00;;;;;;;-145.63;36.59;39141.59;5004316;28;20471;-67
2024/04/05 06:45:00;;;;;;;3.80;2.25;;;;;;;-145.63;36.50;39139.63;5008803;28;20069;-66
2024/04/05 06:47:31;;;;;;;3.65;2.20;;;;;;;-145.63;36.33;39147.44;4998660;28;20114;-65
2024/04/05 06:49:56;;;;;;;2.42;1.95;;;;;;;-145.63;36.25;39145.50;5010670;28;20147;-66
2024/04/05 06:52:41;;;;;;;4.22;2.40;;;;;;;-145.63;36.36;39161.13;5015030;28;20123;-66
2024/04/05 06:58:40;;;;;;;17.45;4.72;;;;;;;-145.63;36.59;39153.31;5003786;28;20048;-68
2024/04/05 07:01:23;;;;;;;3.70;2.60;;;;;;;-145.63;36.18;39159.19;5004352;28;20061;-66
2024/04/05 07:03:54;;;;;;;6.45;2.88;;;;;;;-145.63;36.47;39151.38;5012300;28;20048;-65
2024/04/05 07:09:45;;;;;;;8.30;3.20;;;;;;;-145.63;36.97;39157.22;4997697;28;20049;-67
2024/04/05 07:12:17;;;;;;;7.32;2.90;;;;;;;-145.63;36.54;39161.13;4979874;28;20116;-66
2024/04/05 07:15:32;;;;;;;3.67;2.70;;;;;;;-145.63;37.40;39145.50;4999713;28;20088;-67
2024/04/05 07:18:08;;;;;;;5.38;2.53;;;;;;;-145.63;37.82;39079.00;4996663;28;20510;-66
2024/04/05 07:20:36;;;;;;;5.45;2.67;;;;;;;-145.63;37.96;39086.81;5008779;28;20033;-65
2024/04/05 07:23:11;;;;;;;5.32;2.67;;;;;;;-145.63;38.41;39104.44;5011389;28;20074;-67
2024/04/05 07:26:04;;;;;;;3.92;2.72;;;;;;;-145.63;37.53;39100.50;5011306;28;20088;-66
2024/04/05 07:28:52;;;;;;;5.80;3.25;;;;;;;-145.63;37.31;39122.03;5011867;28;20079;-66
2024/04/05 07:31:51;;;;;;;11.13;3.10;;;;;;;-145.63;36.87;39104.44;5000888;28;20450;-66
2024/04/05 07:34:31;;;;;;;3.35;3.03;;;;;;;-145.63;37.17;39133.75;4999785;28;20367;-69
2024/04/05 07:37:03;;;;;;;5.65;2.97;;;;;;;-145.63;36.91;39116.16;5010393;28;20037;-67
2024/04/05 07:39:39;;;;;;;21.75;4.00;;;;;;;-145.63;37.27;39139.63;5012252;28;20079;-67
2024/04/05 07:42:46;;;;;;;6.28;3.75;;;;;;;-145.63;36.23;39155.28;5009728;28;20065;-67
2024/04/05 07:45:27;;;;;;;7.65;3.60;;;;;;;-145.63;36.65;39149.41;4998646;28;20285;-66
2024/04/05 07:48:16;;;;;;;6.20;4.07;;;;;;;-145.63;36.01;39157.22;5012070;28;20141;-67
2024/04/05 07:53:42;;;;;;;5.32;3.58;;;;;;;-145.63;36.19;39129.84;5010683;28;20053;-65
2024/04/05 07:59:16;;;;;;;6.85;4.30;;;;;;;-145.63;35.30;39147.44;5010471;28;20046;-66
2024/04/05 08:02:29;;;;;;;4.95;4.13;;;;;;;-145.63;35.51;39157.22;5010632;28;20486;-66
2024/04/05 08:08:03;;;;;;;6.47;4.95;;;;;;;-145.63;35.56;39104.44;5009221;28;20367;-67
2024/04/05 08:10:50;;;;;;;5.75;4.60;;;;;;;-145.63;35.96;39114.22;5010646;28;20033;-66
2024/04/05 08:13:40;;;;;;;6.68;5.93;;;;;;;-145.63;35.04;39104.44;4992832;28;20096;-67
2024/04/05 08:22:58;;;;;;;11.00;5.70;;;;;;;-145.63;34.47;39086.81;5010878;28;20034;-67
2024/04/05 08:25:45;;;;;;;6.75;5.88;;;;;;;-145.63;33.90;39153.31;5002145;28;20129;-65
2024/04/05 08:28:13;;;;;;;9.60;6.05;;;;;;;-145.63;33.51;39153.31;5004023;28;20038;-66
2024/04/05 08:30:54;;;;;;;7.75;6.60;;;;;;;-145.63;33.26;39174.84;4994957;28;20034;-66
2024/04/05 08:33:45;;;;;;;8.88;6.47;;;;;;;-145.63;33.52;39120.06;4999618;28;20037;-66
2024/04/05 08:42:17;;;;;;;7.75;6.15;;;;;;;-145.63;32.09;39223.72;5009575;28;20030;-65
2024/04/05 08:45:00;;;;;;;10.95;6.32;;;;;;;-145.63;31.96;39147.44;5014379;28;20034;-65
2024/04/05 08:47:47;;;;;;;6.88;5.97;;;;;;;-145.63;30.91;39127.91;5014440;28;20125;-66
2024/04/05 08:50:33;;;;;;;6.82;5.25;;;;;;;-145.63;32.15;39092.69;5018502;28;20092;-66
2024/04/05 08:58:53;;;;;;;8.13;6.43;;;;;;;-145.63;30.51;39139.63;4982665;28;20353;-63
2024/04/05 09:01:23;;;;;;;10.05;6.05;;;;;;;-145.63;30.94;39143.53;4983748;28;20038;-61
2024/04/05 09:03:48;;;;;;;8.73;6.30;;;;;;;-145.63;31.31;39147.44;4994379;28;20049;-63
2024/04/05 09:06:42;;;;;;;11.13;7.18;;;;;;;-145.63;31.13;39165.06;4987178;28;20464;-65
2024/04/05 09:13:04;;;;;;;8.77;6.72;;;;;;;-145.63;30.28;39178.75;4986572;28;20049;-62
2024/04/05 09:15:31;;;;;;;9.48;6.82;;;;;;;-145.63;29.92;39174.84;4981739;28;20027;-63
2024/04/05 09:18:12;;;;;;;8.50;6.35;;;;;;;-145.63;29.22;39184.59;4990107;28;20038;-64
2024/04/05 09:21:04;;;;;;;13.15;6.88;;;;;;;-145.63;28.82;39161.13;4993812;28;20038;-62
2024/04/05 09:24:00;;;;;;;7.07;5.75;;;;;;;-145.63;28.27;39174.84;4994417;28;20038;-63
2024/04/05 09:30:08;;;;;;;8.93;6.43;;;;;;;-145.63;28.24;39172.88;4976706;28;20168;-62
2024/04/05 09:33:06;;;;;;;11.38;6.85;;;;;;;-145.63;29.03;39184.59;4993461;28;20038;-62
2024/04/05 09:36:10;;;;;;;8.15;6.60;;;;;;;-145.63;29.20;39188.53;4984817;28;20078;-63
2024/04/05 09:46:11;;;;;;;6.60;5.90;;;;;;;-145.63;29.74;39210.03;4988977;28;20057;-62
2024/04/05 09:48:58;;;;;;;7.18;6.20;;;;;;;-145.63;29.26;39194.38;4978262;28;20346;-61
2024/04/05 09:52:03;;;;;;;8.93;6.78;;;;;;;-145.63;29.39;39239.38;4981143;28;20046;-63
2024/04/05 09:58:15;;;;;;;9.13;6.60;;;;;;;-145.63;30.27;39188.53;4991965;28;20133;-62
2024/04/05 10:01:06;;;;;;;12.80;7.22;;;;;;;-145.63;30.09;39215.91;4984324;28;20061;-62
2024/04/05 10:04:31;;;;;;;8.60;6.83;;;;;;;-145.63;31.12;39165.06;4993554;28;20041;-62
2024/04/05 10:07:07;;;;;;;8.70;6.65;;;;;;;-145.63;31.04;39208.06;4993851;28;20026;-62
2024/04/05 10:10:19;;;;;;;9.00;6.40;;;;;;;-145.63;31.55;39155.28;4991019;28;20046;-65
2024/04/05 10:13:29;;;;;;;11.57;6.80;;;;;;;-145.63;31.04;39204.16;4981346;28;20383;-65
2024/04/05 10:16:23;;;;;;;9.65;7.32;;;;;;;-145.63;30.68;39057.50;4977936;28;20053;-62
2024/04/05 10:19:11;;;;;;;13.70;7.30;;;;;;;-145.63;30.71;39184.59;4983571;28;20022;-61
2024/04/05 10:22:09;;;;;;;8.90;6.35;;;;;;;-145.63;31.11;39212.00;4985754;28;20130;-63
2024/04/05 10:24:35;;;;;;;8.50;7.55;;;;;;;-145.63;30.73;39190.47;4979027;28;20035;-61
2024/04/05 10:33:52;;;;;;;8.55;6.50;;;;;;;-145.63;30.16;39188.53;4980455;28;20102;-63
2024/04/05 10:36:36;;;;;;;10.63;6.68;;;;;;;-145.63;30.35;39170.91;4993639;28;20026;-63
2024/04/05 10:39:23;;;;;;;8.55;6.90;;;;;;;-145.63;31.04;39168.97;4973679;28;20031;-64
2024/04/05 10:41:53;;;;;;;7.47;6.65;;;;;;;-145.63;30.94;39194.38;4991889;28;20042;-62
2024/04/05 10:44:56;;;;;;;9.88;6.35;;;;;;;-145.63;30.97;39215.91;4993264;28;20027;-62
2024/04/05 10:47:46;;;;;;;9.50;6.50;;;;;;;-145.63;30.08;39219.81;4983301;28;20069;-64
2024/04/05 10:53:40;;;;;;;11.27;6.47;;;;;;;-145.63;29.22;39225.69;4992988;28;20490;-64
2024/04/05 10:56:46;;;;;;;10.23;5.68;;;;;;;-145.63;29.18;39215.91;5003454;28;20064;-63
2024/04/05 10:59:52;;;;;;;7.35;6.10;;;;;;;-145.63;29.29;39235.47;4988919;28;20053;-63
2024/04/05 11:02:21;;;;;;;11.07;5.93;;;;;;;-145.63;28.57;39227.63;4979663;28;20102;-62
2024/04/05 11:05:12;;;;;;;9.07;6.05;;;;;;;-145.63;28.78;39071.19;4978515;28;20026;-62
2024/04/05 11:11:37;;;;;;;18.92;6.30;;;;;;;-145.63;28.32;39255.00;4984294;28;20150;-63
2024/04/05 11:18:19;;;;;;;8.65;5.80;;;;;;;-145.63;28.45;39178.75;4990453;28;20053;-62
2024/04/05 11:23:54;;;;;;;10.10;5.57;;;;;;;-145.63;28.16;39210.03;4977330;28;20106;-63
2024/04/05 11:26:30;;;;;;;8.68;4.97;;;;;;;-145.63;28.41;39225.69;4986932;28;20059;-63
2024/04/05 11:35:53;;;;;;;9.45;5.15;;;;;;;-145.63;27.61;39223.72;4979487;28;20085;-61
2024/04/05 11:42:10;;;;;;;13.50;5.25;;;;;;;-145.63;28.34;39208.06;4988715;28;20053;-63
2024/04/05 11:44:57;;;;;;;6.22;4.63;;;;;;;-145.63;27.35;39225.69;4992493;28;20036;-61
2024/04/05 11:48:02;;;;;;;8.00;5.38;;;;;;;-145.63;27.73;39212.00;4976754;28;20098;-61
2024/04/05 11:50:51;;;;;;;5.95;4.40;;;;;;;-145.63;27.77;39223.72;4977808;28;20045;-64
2024/04/05 11:53:17;;;;;;;7.03;4.47;;;;;;;-145.63;28.64;39243.28;4992385;28;20097;-63
2024/04/05 11:55:43;;;;;;;7.75;4.60;;;;;;;-145.63;28.55;39237.41;4986639;28;20426;-64
2024/04/05 11:58:10;;;;;;;8.75;4.80;;;;;;;-145.63;28.26;39229.59;4992071;28;20052;-64
2024/04/05 12:00:35;;;;;;;6.45;4.47;;;;;;;-145.63;28.04;39229.59;5007468;28;20081;-63
2024/04/05 12:03:01;;;;;;;6.40;4.25;;;;;;;-145.63;27.90;39229.59;4974710;28;20058;-62
2024/04/05 12:05:27;;;;;;;6.18;3.80;;;;;;;-145.63;27.21;39235.47;4981821;28;20043;-62
2024/04/05 12:08:17;;;;;;;5.45;3.63;;;;;;;-145.63;28.29;39206.13;4985496;28;20089;-63
2024/04/05 12:10:49;;;;;;;8.00;4.38;;;;;;;-145.63;28.11;39243.28;4986498;28;20034;-63
2024/04/05 12:13:23;;;;;;;5.13;4.00;;;;;;;-145.63;28.44;39204.16;4992104;28;20042;-62
2024/04/05 12:16:01;;;;;;;7.00;3.50;;;;;;;-145.63;28.37;39243.28;4990082;28;20390;-63
2024/04/05 12:18:45;;;;;;;7.38;4.00;;;;;;;-145.63;28.04;39213.94;4987364;28;20088;-63
2024/04/05 12:24:47;;;;;;;4.28;3.00;;;;;;;-145.63;27.27;39227.63;4972092;28;20420;-63
2024/04/05 12:27:27;;;;;;;6.88;3.55;;;;;;;-145.63;27.51;39223.72;4992075;28;20049;-65
2024/04/05 12:36:37;;;;;;;5.75;2.88;;;;;;;-145.63;27.17;39210.03;4972491;28;20042;-67
2024/04/05 12:42:05;;;;;;;5.65;3.28;;;;;;;-145.63;26.71;39239.38;4973106;28;20034;-65
2024/04/05 12:44:34;;;;;;;6.07;2.92;;;;;;;-145.63;27.06;39235.47;5001907;28;20508;-65
2024/04/05 12:46:59;;;;;;;9.40;3.53;;;;;;;-145.63;26.80;39235.47;5000557;28;20038;-65
2024/04/05 12:49:25;;;;;;;7.90;3.45;;;;;;;-145.63;26.85;39208.06;4991774;28;20052;-64
2024/04/05 12:51:51;;;;;;;4.88;3.15;;;;;;;-145.63;27.30;39219.81;4990528;28;20038;-65
2024/04/05 12:54:17;;;;;;;5.88;3.20;;;;;;;-145.63;27.49;39251.09;4972154;28;20122;-66
2024/04/05 12:56:43;;;;;;;3.20;2.90;;;;;;;-145.63;27.52;39229.59;4971873;28;20034;-67
2024/04/05 12:59:09;;;;;;;4.35;3.22;;;;;;;-145.63;27.23;39227.63;4981934;28;20537;-66
2024/04/05 13:01:35;;;;;;;6.28;3.30;;;;;;;-145.63;26.46;39243.28;4979334;28;20046;-66
2024/04/05 13:04:01;;;;;;;5.00;2.78;;;;;;;-145.63;26.51;39274.56;4983336;28;20081;-67
2024/04/05 13:06:27;;;;;;;4.45;2.50;;;;;;;-145.63;26.76;39290.22;4989447;28;20038;-65
2024/04/05 13:08:55;;;;;;;3.70;3.00;;;;;;;-145.63;26.49;39256.97;4973399;28;20027;-66
2024/04/05 13:11:20;;;;;;;5.45;2.70;;;;;;;-145.63;26.64;39227.63;4984688;28;20426;-67
2024/04/05 13:13:47;;;;;;;5.10;2.80;;;;;;;-145.63;26.39;39217.84;4981703;28;20030;-67
2024/04/05 13:16:14;;;;;;;6.50;2.85;;;;;;;-145.63;26.27;39212.00;4976414;28;20046;-67
2024/04/05 13:18:40;;;;;;;3.85;2.70;;;;;;;-145.63;26.67;39237.41;4972738;28;20038;-70
2024/04/05 13:21:14;;;;;;;3.83;2.38;;;;;;;-145.63;26.68;39243.28;4992432;28;20133;-64
2024/04/05 13:23:42;;;;;;;8.07;2.97;;;;;;;-145.63;26.98;39247.19;4979356;28;20450;-65
2024/04/05 13:26:12;;;;;;;3.55;2.72;;;;;;;-145.63;26.79;39243.28;4987003;28;20038;-65
2024/04/05 13:28:39;;;;;;;5.50;2.75;;;;;;;-145.63;26.78;39247.19;4985917;28;20041;-65
2024/04/05 13:31:07;;;;;;;8.63;2.90;;;;;;;-145.63;26.44;39251.09;4977575;28;20042;-65
2024/04/05 13:33:37;;;;;;;7.20;3.17;;;;;;;-145.63;26.27;39249.16;4982087;28;20038;-66
2024/04/05 13:36:14;;;;;;;5.50;2.78;;;;;;;-145.63;25.85;39264.78;4984654;28;20113;-66
2024/04/05 13:38:41;;;;;;;5.75;2.42;;;;;;;-145.63;25.73;39229.59;4981615;28;20109;-63
2024/04/05 13:41:07;;;;;;;3.47;2.42;;;;;;;-145.63;26.11;39233.50;4981333;28;20265;-64
2024/04/05 13:43:34;;;;;;;6.35;2.30;;;;;;;-145.63;25.88;39260.88;4994522;28;20077;-65
2024/04/05 13:46:08;;;;;;;6.68;2.20;;;;;;;-145.63;26.08;39235.47;4993616;28;20566;-65
2024/04/05 13:48:35;;;;;;;8.15;2.75;;;;;;;-145.63;25.59;39247.19;4993408;28;20066;-66
2024/04/05 13:51:01;;;;;;;3.42;2.35;;;;;;;-145.63;26.06;39253.06;4994006;28;20030;-65
2024/04/05 13:53:28;;;;;;;3.80;2.38;;;;;;;-145.63;26.65;39247.19;4993730;28;20387;-63
2024/04/05 13:55:54;;;;;;;5.82;2.28;;;;;;;-145.63;25.93;39237.41;4990734;28;20030;-63
2024/04/05 13:58:20;;;;;;;5.18;2.33;;;;;;;-145.63;25.74;39258.94;4994375;28;20055;-64
2024/04/05 14:00:45;;;;;;;6.32;2.30;;;;;;;-145.63;25.93;39243.28;4993551;28;20046;-65
2024/04/05 14:03:11;;;;;;;4.30;2.95;;;;;;;-145.63;25.96;39270.66;4980827;28;20058;-66
2024/04/05 14:05:37;;;;;;;4.82;2.53;;;;;;;-145.63;26.05;39256.97;4989220;28;20034;-63
2024/04/05 14:08:04;;;;;;;4.18;2.72;;;;;;;-145.63;26.14;39286.31;4993369;28;20490;-63
2024/04/05 14:10:34;;;;;;;7.45;2.78;;;;;;;-145.63;26.15;39249.16;4988146;28;20031;-63
2024/04/05 14:13:00;;;;;;;6.72;3.08;;;;;;;-145.63;27.15;39268.72;4975697;28;20038;-65
2024/04/05 14:15:25;;;;;;;5.22;2.30;;;;;;;-145.63;27.12;39282.41;4993621;28;20049;-64
2024/04/05 14:17:51;;;;;;;6.13;2.50;;;;;;;-145.63;27.08;39239.38;4993222;28;20030;-64
2024/04/05 14:20:17;;;;;;;7.28;2.60;;;;;;;-145.63;27.32;39264.78;4994164;28;20030;-64
2024/04/05 14:22:42;;;;;;;4.13;2.72;;;;;;;-145.63;27.05;39272.63;4985992;28;20533;-63
2024/04/05 14:25:09;;;;;;;5.60;2.60;;;;;;;-145.63;26.74;39278.47;4974584;28;20108;-62
2024/04/05 14:27:35;;;;;;;8.35;2.80;;;;;;;-145.63;27.05;39247.19;4993118;28;20041;-65
2024/04/05 14:30:02;;;;;;;5.18;2.25;;;;;;;-145.63;27.30;39258.94;4978219;28;20116;-65
2024/04/05 14:32:30;;;;;;;2.75;2.10;;;;;;;-145.63;27.35;39262.84;4980481;28;20050;-67
2024/04/05 14:34:55;;;;;;;3.80;2.70;;;;;;;-145.63;27.30;39258.94;4982226;28;20038;-65
2024/04/05 14:37:22;;;;;;;3.85;2.92;;;;;;;-145.63;27.30;39270.66;4992841;28;20034;-66
2024/04/05 14:39:52;;;;;;;8.32;2.60;;;;;;;-145.63;27.52;39280.44;4993387;28;20026;-65
2024/04/05 14:42:18;;;;;;;6.30;3.10;;;;;;;-145.63;26.78;39300.00;4974228;28;20035;-64
2024/04/05 14:44:52;;;;;;;7.75;3.42;;;;;;;-145.63;26.61;39270.66;5003374;28;20042;-66
2024/04/05 14:47:22;;;;;;;5.35;2.60;;;;;;;-145.63;27.25;39245.25;5000978;28;20166;-67
2024/04/05 14:49:48;;;;;;;6.80;2.40;;;;;;;-145.63;26.82;39249.16;4985569;28;20057;-65
2024/04/05 14:52:15;;;;;;;5.53;2.20;;;;;;;-145.63;26.81;39274.56;4989362;28;20462;-65
2024/04/05 14:54:41;;;;;;;3.38;2.25;;;;;;;-145.63;26.83;39247.19;4973629;28;20045;-65
2024/04/05 14:57:10;;;;;;;5.63;2.33;;;;;;;-145.63;26.80;39264.78;4973582;28;20055;-65
2024/04/05 14:59:35;;;;;;;3.13;2.58;;;;;;;-145.63;26.96;39266.75;4986963;28;20034;-66
2024/04/05 15:02:01;;;;;;;5.40;2.22;;;;;;;-145.63;26.52;39274.56;4983911;28;20043;-65
2024/04/05 15:04:26;;;;;;;5.32;2.63;;;;;;;-145.63;26.21;39266.75;4977659;28;20046;-66
2024/04/05 15:07:02;;;;;;;8.70;2.90;;;;;;;-145.63;26.17;39266.75;4973372;28;20455;-65
2024/04/05 15:09:31;;;;;;;3.33;2.90;;;;;;;-145.63;26.44;39282.41;4976975;28;20170;-65